Time;durP1;ratioP1;P1;durP2;ratioP2;P2;SDS_P1;SDS_P2;PMS_P1;PMS_P2;Temp;Humidity;BMP_temperature;BMP_pressure;BME280_temperature;BME280_humidity;BME280_pressure;Samples;Min_cycle;Max_cycle;Signal;HPM_P1;HPM_P2
2023/05/07 00:00:35;;;;;;;2.20;1.40;;;19.70;57.70;;;;;;5087690;28;20210;-60
2023/05/07 00:03:08;;;;;;;1.63;1.52;;;19.70;57.70;;;;;;5087547;28;20190;-59
2023/05/07 00:05:39;;;;;;;2.75;1.42;;;19.80;58.30;;;;;;5087586;28;20186;-59
2023/05/07 00:08:09;;;;;;;1.83;1.40;;;19.70;57.60;;;;;;5087319;28;20665;-60
2023/05/07 00:10:40;;;;;;;2.42;1.75;;;19.80;57.70;;;;;;5087082;28;20213;-58
2023/05/07 00:13:11;;;;;;;4.50;2.10;;;19.80;57.70;;;;;;5087772;28;20195;-59
2023/05/07 00:15:41;;;;;;;2.20;1.77;;;19.80;58.40;;;;;;5087069;28;20205;-59
2023/05/07 00:18:14;;;;;;;3.00;1.70;;;19.80;58.40;;;;;;5087600;28;20194;-59
2023/05/07 00:20:44;;;;;;;2.58;1.70;;;19.80;58.30;;;;;;5087123;28;20210;-59
2023/05/07 00:23:15;;;;;;;2.05;1.45;;;19.80;58.20;;;;;;5087760;28;20662;-59
2023/05/07 00:25:46;;;;;;;3.28;2.20;;;19.80;58.20;;;;;;5087990;28;20566;-59
2023/05/07 00:28:16;;;;;;;6.80;2.45;;;19.90;58.40;;;;;;5087728;28;20198;-58
2023/05/07 00:30:47;;;;;;;5.15;2.00;;;19.90;58.60;;;;;;5087972;28;20226;-59
2023/05/07 00:33:20;;;;;;;8.32;2.00;;;19.90;58.80;;;;;;5087373;28;20201;-59
2023/05/07 00:35:51;;;;;;;7.45;4.10;;;19.90;58.80;;;;;;5087392;28;20183;-59
2023/05/07 00:38:21;;;;;;;5.18;2.40;;;19.90;59.00;;;;;;5087485;28;20195;-60
2023/05/07 00:40:52;;;;;;;6.40;2.58;;;20.00;59.20;;;;;;5087523;28;20717;-59
2023/05/07 00:43:23;;;;;;;4.05;2.50;;;20.00;59.20;;;;;;5087632;28;20287;-59
2023/05/07 00:45:53;;;;;;;6.50;2.40;;;20.00;59.20;;;;;;5087321;28;20213;-59
2023/05/07 00:48:27;;;;;;;3.90;2.33;;;20.00;59.10;;;;;;5087824;28;20201;-59
2023/05/07 00:50:58;;;;;;;5.22;2.53;;;20.00;59.00;;;;;;5087491;28;20215;-59
2023/05/07 00:53:30;;;;;;;4.32;2.63;;;20.00;58.90;;;;;;5087491;28;20206;-59
2023/05/07 00:56:01;;;;;;;4.22;2.63;;;20.10;58.90;;;;;;5087445;28;20234;-59
2023/05/07 00:58:32;;;;;;;4.13;2.47;;;20.10;58.90;;;;;;5078111;28;20194;-58
2023/05/07 01:01:03;;;;;;;3.40;2.30;;;20.10;58.90;;;;;;5073764;28;20301;-58
2023/05/07 01:03:35;;;;;;;3.72;2.30;;;20.10;58.80;;;;;;5073592;28;20709;-58
2023/05/07 01:06:07;;;;;;;3.72;2.13;;;20.10;58.80;;;;;;5073646;28;20195;-59
2023/05/07 01:08:39;;;;;;;3.58;2.63;;;20.10;58.80;;;;;;5073506;28;20194;-59
2023/05/07 01:11:11;;;;;;;5.03;3.13;;;20.10;59.00;;;;;;5074271;28;20219;-58
2023/05/07 01:13:42;;;;;;;4.30;2.67;;;20.10;59.00;;;;;;5074011;28;20585;-58
2023/05/07 01:16:13;;;;;;;3.92;2.83;;;20.10;59.00;;;;;;5073390;28;20205;-58
2023/05/07 01:18:48;;;;;;;4.05;2.70;;;20.20;59.20;;;;;;5073314;28;20198;-59
2023/05/07 01:21:20;;;;;;;5.35;2.92;;;20.20;59.10;;;;;;5073477;28;20214;-59
2023/05/07 01:23:52;;;;;;;4.35;2.90;;;20.20;59.10;;;;;;5055718;22;20228;-47
2023/05/07 01:26:25;;;;;;;4.72;3.13;;;20.20;59.10;;;;;;5033577;28;20219;-46
2023/05/07 01:28:55;;;;;;;4.57;2.95;;;20.20;59.00;;;;;;5033498;28;20223;-47
2023/05/07 01:31:27;;;;;;;5.78;3.33;;;20.20;59.00;;;;;;5049852;28;20215;-47
2023/05/07 01:33:59;;;;;;;5.38;2.80;;;20.20;58.90;;;;;;5053061;28;20195;-47
2023/05/07 01:36:30;;;;;;;5.00;3.13;;;20.20;58.90;;;;;;5053276;28;20200;-46
2023/05/07 01:39:04;;;;;;;3.83;2.70;;;20.30;58.90;;;;;;5053382;28;20199;-50
2023/05/07 01:41:35;;;;;;;4.30;2.75;;;20.30;58.90;;;;;;5053187;28;20211;-48
2023/05/07 01:44:08;;;;;;;3.25;2.67;;;20.20;58.90;;;;;;5054051;28;20203;-47
2023/05/07 01:46:39;;;;;;;4.00;2.70;;;20.30;58.90;;;;;;5070023;28;20245;-48
2023/05/07 01:49:09;;;;;;;4.10;3.03;;;20.30;58.90;;;;;;5072885;28;20198;-46
2023/05/07 01:51:41;;;;;;;5.13;2.75;;;20.30;58.90;;;;;;5072453;28;20210;-47
2023/05/07 01:54:14;;;;;;;4.72;2.97;;;20.30;58.80;;;;;;5060437;28;20223;-46
2023/05/07 01:56:45;;;;;;;3.75;2.63;;;20.30;58.90;;;;;;5052694;28;20245;-46
2023/05/07 01:59:15;;;;;;;4.45;3.05;;;20.30;58.90;;;;;;5053401;28;20195;-47
2023/05/07 02:01:46;;;;;;;5.20;2.95;;;20.30;58.80;;;;;;5052762;28;20246;-48
2023/05/07 02:04:16;;;;;;;3.67;2.83;;;20.30;58.90;;;;;;5052377;28;20192;-48
2023/05/07 02:06:47;;;;;;;6.05;2.95;;;20.30;58.80;;;;;;5053044;28;20215;-47
2023/05/07 02:09:20;;;;;;;5.10;2.72;;;20.30;58.80;;;;;;5052017;28;20203;-45
2023/05/07 02:11:50;;;;;;;3.53;2.70;;;20.30;58.80;;;;;;5052699;28;20203;-46
2023/05/07 02:14:21;;;;;;;6.13;2.97;;;20.30;58.80;;;;;;5052562;28;20192;-46
2023/05/07 02:16:52;;;;;;;4.93;2.92;;;20.40;58.90;;;;;;5052396;28;20238;-45
2023/05/07 02:19:22;;;;;;;3.85;2.60;;;20.30;58.80;;;;;;5052525;28;20203;-45
2023/05/07 02:22:03;;;;;;;;;;;;;;;;;;;;;
2023/05/07 03:24:22;;;;;;;3.60;2.60;;;20.50;58.60;;;;;;5091895;22;20609;-45
2023/05/07 03:26:53;;;;;;;4.50;2.50;;;20.50;58.60;;;;;;4990723;28;20465;-45
2023/05/07 03:29:23;;;;;;;3.45;2.80;;;20.50;58.60;;;;;;4992007;28;20198;-45
2023/05/07 03:31:54;;;;;;;3.67;2.63;;;20.50;58.60;;;;;;4972634;28;20257;-46
2023/05/07 03:34:24;;;;;;;5.03;2.83;;;20.60;58.70;;;;;;4972913;28;20612;-48
2023/05/07 03:36:55;;;;;;;3.00;2.47;;;20.60;58.60;;;;;;4972879;28;20665;-45
2023/05/07 03:39:28;;;;;;;2.60;2.17;;;20.60;58.60;;;;;;4972754;28;20199;-45
2023/05/07 03:41:58;;;;;;;4.30;2.58;;;20.60;58.60;;;;;;4974931;28;20190;-45
2023/05/07 03:44:29;;;;;;;3.03;2.72;;;20.60;58.60;;;;;;4953303;28;20202;-45
2023/05/07 03:47:00;;;;;;;3.28;2.38;;;20.60;58.60;;;;;;4953330;29;20229;-46
2023/05/07 03:49:30;;;;;;;3.92;2.65;;;20.60;59.20;;;;;;4953317;29;20198;-45
2023/05/07 03:52:00;;;;;;;3.00;2.65;;;20.60;58.50;;;;;;4953150;28;20198;-46
2023/05/07 03:54:34;;;;;;;3.25;2.78;;;20.60;58.50;;;;;;4967079;28;20202;-43
2023/05/07 03:57:05;;;;;;;3.75;2.30;;;20.60;58.50;;;;;;4969162;28;20205;-48
2023/05/07 03:59:35;;;;;;;2.88;2.40;;;20.60;58.60;;;;;;4965435;28;20198;-46
2023/05/07 04:02:06;;;;;;;5.10;3.00;;;20.60;59.90;;;;;;4971527;28;20216;-46
2023/05/07 04:04:36;;;;;;;6.75;3.33;;;20.60;59.70;;;;;;4967295;28;20604;-46
2023/05/07 04:07:07;;;;;;;5.47;2.97;;;20.60;59.70;;;;;;4973563;28;20218;-46
2023/05/07 04:09:40;;;;;;;6.07;3.30;;;20.60;59.70;;;;;;4973896;28;20194;-46
2023/05/07 04:12:10;;;;;;;6.75;3.13;;;20.70;59.70;;;;;;4971696;28;20279;-49
2023/05/07 04:14:41;;;;;;;7.90;3.75;;;20.70;59.70;;;;;;4971163;28;20195;-47
2023/05/07 04:17:11;;;;;;;6.28;2.95;;;20.70;59.70;;;;;;4971148;28;20206;-45
2023/05/07 04:19:45;;;;;;;8.05;3.17;;;20.70;59.80;;;;;;4970971;28;20186;-46
2023/05/07 04:24:47;;;;;;;6.32;3.38;;;20.70;59.90;;;;;;4951242;28;20214;-58
2023/05/07 04:27:18;;;;;;;6.35;3.08;;;20.70;59.90;;;;;;4952022;29;20598;-57
2023/05/07 04:29:48;;;;;;;11.30;4.50;;;20.70;59.90;;;;;;4947647;28;20231;-57
2023/05/07 04:32:19;;;;;;;7.68;3.80;;;20.70;59.90;;;;;;4933219;29;20203;-58
2023/05/07 04:34:50;;;;;;;11.98;6.65;;;20.70;59.90;;;;;;4937861;29;20223;-58
2023/05/07 04:37:20;;;;;;;11.20;8.38;;;20.70;59.90;;;;;;4936653;29;20666;-58
2023/05/07 04:39:53;;;;;;;47.10;35.20;;;20.70;59.90;;;;;;4944284;28;20587;-56
2023/05/07 04:42:24;;;;;;;75.90;57.50;;;20.70;59.90;;;;;;4955149;28;20202;-53
2023/05/07 04:44:56;;;;;;;41.88;33.58;;;20.70;59.90;;;;;;4955648;28;20245;-59
2023/05/07 04:47:27;;;;;;;28.13;22.67;;;20.70;59.80;;;;;;4954627;29;20284;-57
2023/05/07 04:49:58;;;;;;;19.83;15.95;;;20.70;59.80;;;;;;4955285;28;20691;-53
2023/05/07 04:52:28;;;;;;;25.05;22.33;;;20.70;59.80;;;;;;4941320;29;20730;-56
2023/05/07 04:55:03;;;;;;;26.90;23.52;;;20.70;59.70;;;;;;4935268;29;20663;-56
2023/05/07 04:57:36;;;;;;;22.70;16.92;;;20.70;59.70;;;;;;4917278;29;20651;-56
2023/05/07 05:00:08;;;;;;;15.57;12.45;;;20.70;59.70;;;;;;4926242;29;20212;-54
2023/05/07 05:02:38;;;;;;;12.25;9.80;;;20.70;59.80;;;;;;4936328;29;20231;-57
2023/05/07 05:05:10;;;;;;;12.45;7.93;;;20.60;59.80;;;;;;4935099;29;20203;-53
2023/05/07 05:07:40;;;;;;;7.40;5.40;;;20.60;59.80;;;;;;4935309;29;20636;-57
2023/05/07 05:10:13;;;;;;;8.07;5.57;;;20.60;60.00;;;;;;4926047;29;20680;-56
2023/05/07 05:12:44;;;;;;;14.23;9.18;;;20.60;60.10;;;;;;4936652;29;20204;-56
2023/05/07 05:15:15;;;;;;;16.25;10.25;;;20.50;60.00;;;;;;4945634;29;20203;-56
2023/05/07 05:17:46;;;;;;;16.25;9.50;;;20.50;60.00;;;;;;4935694;29;20211;-53
2023/05/07 05:20:16;;;;;;;14.30;9.50;;;20.50;60.10;;;;;;4936604;29;20227;-56
2023/05/07 05:22:47;;;;;;;19.13;14.25;;;20.50;60.10;;;;;;4955033;29;20207;-56
2023/05/07 05:25:20;;;;;;;20.55;14.02;;;20.50;60.40;;;;;;4935740;29;20206;-53
2023/05/07 05:27:50;;;;;;;16.70;12.82;;;20.50;60.50;;;;;;4935095;29;20747;-55
2023/05/07 05:30:21;;;;;;;16.60;11.40;;;20.50;60.50;;;;;;4935838;29;20695;-56
2023/05/07 05:32:51;;;;;;;19.15;15.88;;;20.40;60.40;;;;;;4935177;29;20675;-56
2023/05/07 05:35:22;;;;;;;23.38;18.13;;;20.40;60.40;;;;;;4935670;29;20251;-54
2023/05/07 05:37:53;;;;;;;26.98;20.20;;;20.50;60.50;;;;;;4935526;29;20203;-52
2023/05/07 05:40:25;;;;;;;25.92;22.80;;;20.40;60.50;;;;;;4935452;29;20234;-56
2023/05/07 05:42:56;;;;;;;25.25;20.95;;;20.40;60.40;;;;;;4935391;29;20221;-56
2023/05/07 05:45:27;;;;;;;22.38;18.48;;;20.40;60.30;;;;;;4935486;29;20200;-57
2023/05/07 05:47:59;;;;;;;19.70;16.48;;;20.40;60.40;;;;;;4935326;29;20231;-57
2023/05/07 05:50:30;;;;;;;21.20;16.15;;;20.40;60.30;;;;;;4935370;29;20610;-55
2023/05/07 05:53:01;;;;;;;17.50;14.40;;;20.40;60.40;;;;;;4919847;29;20203;-56
2023/05/07 05:55:34;;;;;;;16.85;14.20;;;20.30;60.50;;;;;;4926232;29;20311;-55
2023/05/07 05:58:05;;;;;;;15.65;13.10;;;20.30;60.50;;;;;;4915175;29;20227;-56
2023/05/07 06:00:36;;;;;;;16.48;13.77;;;20.30;60.60;;;;;;4925563;29;20243;-54
2023/05/07 06:03:07;;;;;;;13.73;11.05;;;20.30;60.70;;;;;;4935885;29;20195;-56
2023/05/07 06:05:37;;;;;;;18.27;12.63;;;20.30;60.70;;;;;;4935246;29;20203;-57
2023/05/07 06:08:08;;;;;;;13.57;10.13;;;20.30;60.70;;;;;;4934893;29;20223;-56
2023/05/07 06:10:42;;;;;;;13.70;10.70;;;20.30;60.70;;;;;;4935032;29;20267;-52
2023/05/07 06:13:12;;;;;;;10.10;7.75;;;20.30;60.70;;;;;;4934949;29;20215;-56
2023/05/07 06:15:43;;;;;;;14.50;8.10;;;20.30;60.70;;;;;;4937916;29;20667;-56
2023/05/07 06:18:13;;;;;;;8.50;5.43;;;20.20;60.60;;;;;;4935191;29;20199;-57
2023/05/07 06:20:44;;;;;;;8.50;5.07;;;20.30;60.70;;;;;;4945688;29;20622;-57
2023/05/07 06:23:16;;;;;;;7.90;6.20;;;20.30;60.70;;;;;;4950000;28;20211;-57
2023/05/07 06:25:51;;;;;;;9.00;5.32;;;20.20;60.60;;;;;;4934619;29;20202;-54
2023/05/07 06:28:22;;;;;;;7.25;4.47;;;20.20;60.70;;;;;;4934569;29;20313;-57
2023/05/07 06:30:53;;;;;;;9.23;5.43;;;20.20;60.70;;;;;;4941625;29;20221;-56
2023/05/07 06:33:23;;;;;;;8.48;5.15;;;20.20;60.70;;;;;;4953979;29;20206;-54
2023/05/07 06:35:54;;;;;;;7.53;4.70;;;20.20;60.70;;;;;;4943479;29;20204;-58
2023/05/07 06:38:24;;;;;;;9.02;4.68;;;20.20;60.60;;;;;;4934928;29;20207;-56
2023/05/07 06:40:57;;;;;;;8.48;4.90;;;20.10;60.60;;;;;;4933950;29;20223;-57
2023/05/07 06:43:27;;;;;;;5.47;4.55;;;20.10;60.80;;;;;;4934819;29;20210;-55
2023/05/07 06:45:58;;;;;;;6.30;4.32;;;20.10;60.80;;;;;;4934770;29;20206;-56
2023/05/07 06:48:29;;;;;;;6.22;3.55;;;20.10;60.80;;;;;;4933332;29;20227;-56
2023/05/07 06:50:59;;;;;;;6.07;3.60;;;20.10;60.90;;;;;;4932331;29;20310;-56
2023/05/07 06:53:30;;;;;;;6.68;3.75;;;20.00;60.90;;;;;;4933377;29;20203;-57
2023/05/07 06:56:02;;;;;;;4.93;3.88;;;20.00;61.00;;;;;;4933089;28;20204;-53
2023/05/07 06:58:34;;;;;;;5.55;3.55;;;19.90;61.00;;;;;;4934016;29;20203;-57
2023/05/07 07:01:04;;;;;;;5.35;4.35;;;19.90;61.00;;;;;;4934509;29;20302;-56
2023/05/07 07:03:35;;;;;;;6.07;4.10;;;19.90;61.10;;;;;;4934345;29;20203;-57
2023/05/07 07:06:06;;;;;;;5.97;4.50;;;19.80;61.10;;;;;;4934333;29;20750;-57
2023/05/07 07:08:38;;;;;;;9.40;6.47;;;19.80;61.20;;;;;;4933456;29;20235;-55
2023/05/07 07:11:11;;;;;;;11.77;9.07;;;19.80;61.20;;;;;;4934384;29;20215;-56
2023/05/07 07:13:42;;;;;;;13.45;9.43;;;19.80;61.30;;;;;;4933721;29;20208;-57
2023/05/07 07:16:13;;;;;;;13.02;9.63;;;19.70;61.30;;;;;;4944530;28;20199;-55
2023/05/07 07:18:44;;;;;;;9.75;8.68;;;19.70;61.30;;;;;;4952046;28;20195;-57
2023/05/07 07:21:14;;;;;;;8.82;7.80;;;19.70;61.30;;;;;;4951847;28;20226;-58
2023/05/07 07:23:45;;;;;;;12.40;8.25;;;19.70;61.50;;;;;;4944369;28;20218;-55
2023/05/07 07:26:17;;;;;;;12.77;8.23;;;19.60;61.40;;;;;;4933640;29;20202;-58
2023/05/07 07:28:48;;;;;;;8.38;7.47;;;19.60;61.50;;;;;;4933301;29;20227;-54
2023/05/07 07:31:19;;;;;;;10.13;7.18;;;19.50;61.50;;;;;;4932466;29;20223;-56
2023/05/07 07:33:50;;;;;;;12.65;8.25;;;19.50;61.60;;;;;;4933353;29;20199;-58
2023/05/07 07:36:20;;;;;;;10.88;8.20;;;19.50;61.80;;;;;;4950547;28;20210;-56
2023/05/07 07:38:51;;;;;;;9.90;8.07;;;19.50;61.80;;;;;;4952543;28;20199;-57
2023/05/07 07:41:23;;;;;;;11.23;8.45;;;19.40;61.70;;;;;;4952960;28;20252;-56
2023/05/07 07:43:54;;;;;;;12.07;9.60;;;19.40;61.80;;;;;;4953127;28;20206;-55
2023/05/07 07:46:26;;;;;;;12.82;10.05;;;19.30;61.80;;;;;;4953149;28;20202;-57
2023/05/07 07:48:58;;;;;;;10.27;8.05;;;19.40;61.90;;;;;;4953132;29;20289;-58
2023/05/07 07:51:29;;;;;;;8.40;6.50;;;19.30;61.80;;;;;;4934533;29;20655;-55
2023/05/07 07:54:00;;;;;;;10.88;7.25;;;19.30;61.80;;;;;;4933356;29;20199;-54
2023/05/07 07:56:35;;;;;;;6.55;5.43;;;19.30;61.80;;;;;;4934368;29;20203;-56
2023/05/07 07:59:06;;;;;;;7.00;5.20;;;19.20;62.00;;;;;;4934308;29;20722;-52
2023/05/07 08:01:36;;;;;;;5.97;4.53;;;19.20;62.00;;;;;;4934177;29;20219;-55
2023/05/07 08:04:07;;;;;;;7.13;4.90;;;19.20;62.10;;;;;;4934090;29;20202;-57
2023/05/07 08:06:38;;;;;;;6.30;4.63;;;19.20;62.10;;;;;;4934120;29;20204;-53
2023/05/07 08:09:08;;;;;;;5.22;4.50;;;19.10;62.20;;;;;;4936151;29;20231;-54
2023/05/07 08:11:41;;;;;;;9.93;5.43;;;19.10;62.30;;;;;;4940003;29;20310;-61
2023/05/07 08:14:12;;;;;;;7.47;4.85;;;19.10;62.40;;;;;;4937075;29;20258;-61
2023/05/07 08:16:42;;;;;;;6.32;5.07;;;19.00;62.20;;;;;;4937404;29;20352;-62
2023/05/07 08:19:13;;;;;;;6.65;5.07;;;19.10;62.40;;;;;;4937601;29;20212;-62
2023/05/07 08:21:44;;;;;;;6.00;5.30;;;19.10;62.30;;;;;;4937601;29;20278;-61
2023/05/07 08:24:14;;;;;;;5.82;4.78;;;19.10;62.30;;;;;;4936565;29;20762;-60
2023/05/07 08:26:47;;;;;;;6.72;5.00;;;19.10;62.20;;;;;;4939283;29;20200;-61
2023/05/07 08:29:18;;;;;;;7.10;4.90;;;19.20;62.20;;;;;;4936875;29;20930;-62
2023/05/07 08:31:48;;;;;;;5.68;4.45;;;19.20;62.20;;;;;;4949159;29;20218;-61
2023/05/07 08:34:19;;;;;;;6.95;4.88;;;19.20;62.10;;;;;;4955985;29;20203;-62
2023/05/07 08:36:49;;;;;;;6.40;4.85;;;19.20;62.00;;;;;;4956047;29;20203;-61
2023/05/07 08:39:20;;;;;;;8.77;5.45;;;19.20;62.00;;;;;;4956122;29;20207;-61
2023/05/07 08:41:57;;;;;;;6.43;4.47;;;19.20;61.90;;;;;;4956388;29;20199;-61
2023/05/07 08:44:31;;;;;;;5.85;4.57;;;19.30;61.90;;;;;;4956118;29;20264;-62
2023/05/07 08:47:04;;;;;;;6.28;4.55;;;19.30;61.90;;;;;;4956164;29;20225;-61
2023/05/07 08:49:35;;;;;;;6.18;4.40;;;19.30;61.80;;;;;;4955866;28;20322;-62
2023/05/07 08:52:06;;;;;;;4.53;4.13;;;19.30;61.70;;;;;;4955970;29;20198;-61
2023/05/07 08:54:39;;;;;;;6.80;4.65;;;19.30;61.60;;;;;;4940247;29;20207;-61
2023/05/07 08:57:11;;;;;;;5.28;4.60;;;19.30;61.60;;;;;;4936323;29;20196;-61
2023/05/07 08:59:42;;;;;;;5.88;4.60;;;19.30;61.50;;;;;;4936953;29;20196;-61
2023/05/07 09:02:13;;;;;;;5.63;4.38;;;19.40;61.50;;;;;;4936856;29;20254;-61
2023/05/07 09:04:44;;;;;;;5.50;4.55;;;19.40;61.50;;;;;;4936509;29;20199;-61
2023/05/07 09:07:15;;;;;;;6.05;4.70;;;19.40;61.40;;;;;;4936713;29;20207;-60
2023/05/07 09:09:47;;;;;;;5.22;4.43;;;19.40;61.40;;;;;;4936371;29;20234;-60
2023/05/07 09:12:19;;;;;;;8.95;5.20;;;19.40;61.40;;;;;;4936574;29;20199;-61
2023/05/07 09:14:50;;;;;;;7.45;4.65;;;19.40;61.40;;;;;;4925078;29;20551;-60
2023/05/07 09:17:21;;;;;;;6.00;4.15;;;19.40;61.20;;;;;;4917796;29;20263;-60
2023/05/07 09:19:53;;;;;;;6.78;5.10;;;19.40;61.30;;;;;;4941781;28;20572;-59
2023/05/07 09:22:33;;;;;;;9.07;5.75;;;19.40;61.20;;;;;;4933829;29;20199;-59
2023/05/07 09:25:04;;;;;;;10.55;6.30;;;19.40;62.00;;;;;;4918780;29;20220;-59
2023/05/07 09:27:37;;;;;;;10.32;5.45;;;19.50;62.00;;;;;;4926811;29;20196;-59
2023/05/07 09:30:08;;;;;;;8.68;4.97;;;19.50;61.80;;;;;;4916065;29;20239;-59
2023/05/07 09:32:39;;;;;;;6.90;5.38;;;19.50;61.70;;;;;;4935520;29;20204;-59
2023/05/07 09:35:18;;;;;;;6.75;4.68;;;19.50;61.60;;;;;;4935548;29;20679;-59
2023/05/07 09:37:49;;;;;;;7.93;5.10;;;19.50;61.50;;;;;;4935416;29;20282;-60
2023/05/07 09:40:30;;;;;;;9.00;4.82;;;19.50;61.40;;;;;;4921733;29;20276;-60
2023/05/07 09:43:13;;;;;;;7.75;5.22;;;19.50;61.30;;;;;;4916360;29;20212;-58
2023/05/07 09:45:45;;;;;;;9.32;5.30;;;19.60;61.30;;;;;;4919408;29;20235;-59
2023/05/07 09:48:18;;;;;;;7.72;5.10;;;19.50;61.30;;;;;;4935544;29;21129;-59
2023/05/07 09:50:54;;;;;;;6.88;4.90;;;19.60;61.30;;;;;;4935943;29;20673;-59
2023/05/07 09:53:25;;;;;;;6.63;4.85;;;19.60;61.20;;;;;;4933693;29;20202;-59
2023/05/07 09:56:03;;;;;;;6.43;4.63;;;19.60;61.30;;;;;;4934702;29;20188;-59
2023/05/07 09:58:39;;;;;;;8.38;5.10;;;19.60;61.20;;;;;;4934309;29;20210;-59
2023/05/07 10:01:11;;;;;;;6.38;4.40;;;19.60;62.00;;;;;;4934227;29;20298;-59
2023/05/07 10:03:44;;;;;;;6.18;4.70;;;19.60;61.20;;;;;;4934729;29;20204;-59
2023/05/07 10:06:17;;;;;;;6.72;4.68;;;19.50;61.00;;;;;;4934763;29;20219;-59
2023/05/07 10:08:48;;;;;;;6.78;4.53;;;19.50;61.00;;;;;;4926175;29;20211;-59
2023/05/07 10:11:19;;;;;;;5.63;4.43;;;19.60;61.00;;;;;;4921941;29;20208;-59
2023/05/07 10:13:52;;;;;;;6.45;4.38;;;19.50;61.00;;;;;;4933991;29;20211;-60
2023/05/07 10:16:23;;;;;;;7.10;4.60;;;19.50;61.00;;;;;;4937651;28;20202;-60
2023/05/07 10:18:55;;;;;;;9.63;4.40;;;19.50;60.90;;;;;;4953667;28;20206;-59
2023/05/07 10:21:29;;;;;;;6.25;4.55;;;19.50;60.90;;;;;;4953839;28;20207;-59
2023/05/07 10:24:05;;;;;;;5.88;4.28;;;19.50;60.90;;;;;;4943657;28;20215;-58
2023/05/07 10:26:38;;;;;;;6.63;4.90;;;19.50;60.80;;;;;;4942381;29;20238;-59
2023/05/07 10:29:24;;;;;;;5.72;4.25;;;19.50;60.80;;;;;;4916132;29;20228;-59
2023/05/07 10:32:03;;;;;;;6.35;4.28;;;19.50;60.70;;;;;;4924088;29;20207;-59
2023/05/07 10:34:38;;;;;;;6.45;4.78;;;19.50;60.80;;;;;;4944325;29;20198;-59
2023/05/07 10:37:09;;;;;;;5.43;4.10;;;19.50;60.70;;;;;;4942338;29;20199;-59
2023/05/07 10:39:40;;;;;;;7.82;4.78;;;19.50;60.70;;;;;;4934861;29;20203;-59
2023/05/07 10:42:14;;;;;;;7.53;4.90;;;19.50;60.70;;;;;;4934862;29;20667;-59
2023/05/07 10:44:47;;;;;;;7.70;4.65;;;19.50;60.70;;;;;;4935076;29;20203;-59
2023/05/07 10:47:20;;;;;;;6.80;4.10;;;19.50;60.70;;;;;;4934062;29;20196;-60
2023/05/07 10:50:25;;;;;;;6.50;5.07;;;19.50;60.70;;;;;;4934062;29;20242;-59
2023/05/07 10:53:28;;;;;;;8.30;5.07;;;19.40;60.60;;;;;;4933181;29;20267;-59
2023/05/07 10:56:31;;;;;;;6.10;4.18;;;19.40;60.60;;;;;;4949653;29;20206;-59
2023/05/07 10:59:41;;;;;;;4.90;4.13;;;19.40;60.60;;;;;;4856861;29;20267;-59
2023/05/07 11:02:15;;;;;;;6.25;4.38;;;19.40;60.60;;;;;;4857149;29;20206;-59
2023/05/07 11:04:45;;;;;;;6.68;4.57;;;19.40;60.50;;;;;;4917787;29;20812;-59
2023/05/07 11:07:36;;;;;;;5.55;4.57;;;19.40;60.60;;;;;;4933515;29;20207;-59
2023/05/07 11:10:10;;;;;;;9.23;4.50;;;19.40;60.60;;;;;;4932614;29;20815;-60
2023/05/07 11:12:59;;;;;;;5.68;4.10;;;19.40;60.60;;;;;;4933100;29;20707;-60
2023/05/07 11:15:44;;;;;;;5.82;4.00;;;19.40;60.60;;;;;;4929810;29;20196;-60
2023/05/07 11:18:17;;;;;;;7.55;4.60;;;19.40;60.50;;;;;;4931908;29;20294;-60
2023/05/07 11:20:50;;;;;;;7.47;5.03;;;19.40;60.50;;;;;;4933348;29;20223;-59
2023/05/07 11:24:00;;;;;;;6.72;4.30;;;19.40;60.40;;;;;;4934404;29;20242;-59
2023/05/07 11:26:33;;;;;;;6.55;4.25;;;19.40;60.40;;;;;;4944813;29;20218;-59
2023/05/07 11:29:04;;;;;;;5.50;4.40;;;19.40;60.40;;;;;;4933440;29;20200;-59
2023/05/07 11:31:34;;;;;;;6.10;4.13;;;19.40;60.50;;;;;;4933401;29;20581;-59
2023/05/07 11:34:07;;;;;;;5.20;3.92;;;19.30;60.50;;;;;;4932620;29;20204;-60
2023/05/07 11:36:44;;;;;;;7.05;4.50;;;19.30;60.50;;;;;;4934052;29;20221;-60
2023/05/07 11:39:32;;;;;;;6.07;4.47;;;19.30;60.50;;;;;;4933137;29;20245;-60
2023/05/07 11:42:04;;;;;;;5.18;4.05;;;19.30;60.50;;;;;;4932877;29;20198;-60
2023/05/07 11:44:48;;;;;;;6.45;4.60;;;19.30;60.50;;;;;;4932453;29;20196;-60
2023/05/07 11:47:22;;;;;;;6.80;4.60;;;19.30;60.50;;;;;;4933951;29;20192;-59
2023/05/07 11:49:56;;;;;;;7.82;4.38;;;19.30;60.40;;;;;;4932678;29;20226;-60
2023/05/07 11:52:27;;;;;;;5.60;4.30;;;19.30;60.40;;;;;;4934201;29;20564;-59
2023/05/07 11:54:59;;;;;;;6.47;4.72;;;19.30;60.40;;;;;;4934132;29;20687;-60
2023/05/07 11:57:30;;;;;;;6.40;4.10;;;19.30;60.30;;;;;;4934082;29;20203;-60
2023/05/07 12:00:02;;;;;;;7.93;4.88;;;19.30;60.30;;;;;;4933592;29;20230;-60
2023/05/07 12:02:32;;;;;;;6.13;4.38;;;19.30;60.30;;;;;;4933957;29;20210;-60
2023/05/07 12:05:05;;;;;;;5.57;4.60;;;19.30;60.30;;;;;;4934011;29;20204;-60
2023/05/07 12:07:37;;;;;;;7.70;4.78;;;19.20;60.10;;;;;;4933849;29;20207;-60
2023/05/07 12:10:11;;;;;;;5.97;4.38;;;19.20;60.20;;;;;;4933277;29;20234;-61
2023/05/07 12:12:48;;;;;;;5.60;3.90;;;19.20;60.20;;;;;;4933252;29;20231;-60
2023/05/07 12:15:24;;;;;;;8.50;4.53;;;19.20;60.30;;;;;;4923995;29;20731;-59
2023/05/07 12:17:55;;;;;;;7.93;4.63;;;19.20;60.30;;;;;;4927336;29;20567;-60
2023/05/07 12:20:28;;;;;;;5.03;3.88;;;19.20;60.30;;;;;;4921822;29;20216;-60
2023/05/07 12:22:59;;;;;;;6.25;4.10;;;19.20;60.40;;;;;;4924482;29;20207;-60
2023/05/07 12:25:32;;;;;;;5.18;3.90;;;19.20;60.30;;;;;;4922659;29;20192;-60
2023/05/07 12:28:05;;;;;;;5.80;4.00;;;19.20;60.30;;;;;;4922038;29;20204;-60
2023/05/07 12:30:39;;;;;;;6.45;4.30;;;19.20;60.30;;;;;;4925853;29;20231;-60
2023/05/07 12:33:10;;;;;;;7.95;4.63;;;19.20;60.30;;;;;;4925330;29;20195;-60
2023/05/07 12:35:43;;;;;;;6.97;4.55;;;19.20;60.20;;;;;;4924426;29;21565;-61
2023/05/07 12:38:14;;;;;;;6.72;4.45;;;19.20;60.20;;;;;;4923151;29;20192;-61
2023/05/07 12:40:47;;;;;;;5.90;4.53;;;19.20;60.20;;;;;;4921528;29;20220;-60
2023/05/07 12:43:21;;;;;;;6.72;4.50;;;19.20;60.20;;;;;;4919827;29;20204;-60
2023/05/07 12:45:54;;;;;;;7.28;4.72;;;19.20;60.20;;;;;;4914465;29;20200;-60
2023/05/07 12:48:26;;;;;;;7.88;4.65;;;19.20;60.20;;;;;;4914686;29;20205;-60
2023/05/07 12:50:59;;;;;;;8.02;4.35;;;19.10;60.20;;;;;;4914483;29;20719;-60
2023/05/07 12:53:31;;;;;;;6.82;4.65;;;19.20;60.30;;;;;;4920990;29;20214;-59
2023/05/07 12:56:02;;;;;;;7.25;4.35;;;19.20;60.30;;;;;;4937308;29;20333;-60
2023/05/07 12:58:35;;;;;;;8.02;4.70;;;19.20;60.30;;;;;;4936128;29;20196;-59
2023/05/07 13:01:09;;;;;;;7.45;4.85;;;19.10;61.10;;;;;;4936320;29;20227;-60
2023/05/07 13:03:40;;;;;;;7.35;4.50;;;19.20;60.40;;;;;;4937097;29;20199;-61
2023/05/07 13:06:14;;;;;;;5.57;4.35;;;19.20;60.40;;;;;;4937021;29;20199;-61
2023/05/07 13:08:45;;;;;;;6.05;4.57;;;19.10;61.10;;;;;;4936707;29;20231;-60
2023/05/07 13:11:15;;;;;;;9.65;4.80;;;19.10;60.30;;;;;;4936483;29;20330;-59
2023/05/07 13:13:46;;;;;;;6.90;4.93;;;19.10;60.30;;;;;;4936999;29;20204;-59
2023/05/07 13:16:17;;;;;;;6.53;4.15;;;19.10;60.30;;;;;;4936886;29;20206;-59
2023/05/07 13:18:47;;;;;;;7.47;4.65;;;19.10;60.30;;;;;;4936438;29;20263;-60
2023/05/07 13:21:20;;;;;;;6.40;4.72;;;19.10;60.30;;;;;;4936377;29;20223;-60
2023/05/07 13:23:50;;;;;;;8.18;4.47;;;19.10;60.30;;;;;;4988152;22;20620;-46
2023/05/07 13:26:21;;;;;;;8.23;4.63;;;19.10;60.20;;;;;;5013788;28;20208;-46
2023/05/07 13:28:52;;;;;;;7.85;4.63;;;19.10;60.30;;;;;;5014242;28;20267;-45
2023/05/07 13:31:23;;;;;;;6.75;4.70;;;19.10;60.40;;;;;;5029736;28;20282;-46
2023/05/07 13:33:56;;;;;;;7.03;4.45;;;19.10;60.40;;;;;;5033085;28;20223;-45
2023/05/07 13:36:28;;;;;;;7.68;4.63;;;19.10;60.40;;;;;;5033010;28;20230;-45
2023/05/07 13:39:00;;;;;;;6.18;4.22;;;19.10;60.40;;;;;;5032962;28;20200;-45
2023/05/07 13:41:30;;;;;;;8.13;4.20;;;19.10;60.40;;;;;;5032891;28;20212;-46
2023/05/07 13:44:01;;;;;;;6.35;4.13;;;19.10;61.20;;;;;;5033866;28;20199;-45
2023/05/07 13:46:32;;;;;;;5.60;4.07;;;19.10;60.40;;;;;;5033702;28;20200;-45
2023/05/07 13:49:02;;;;;;;5.93;4.50;;;19.10;60.40;;;;;;5032872;28;20215;-45
2023/05/07 13:51:35;;;;;;;6.32;3.83;;;19.10;60.40;;;;;;5032020;28;20231;-45
2023/05/07 13:54:06;;;;;;;7.05;4.38;;;19.10;60.40;;;;;;5032965;28;20262;-45
2023/05/07 13:56:36;;;;;;;6.72;4.05;;;19.10;60.40;;;;;;5032549;28;20239;-47
2023/05/07 13:59:07;;;;;;;6.68;4.05;;;19.10;60.40;;;;;;5033264;28;20651;-45
2023/05/07 14:01:38;;;;;;;7.00;3.85;;;19.10;60.40;;;;;;5032701;28;20220;-47
2023/05/07 14:04:08;;;;;;;6.40;4.05;;;19.10;60.40;;;;;;5032548;28;20204;-47
2023/05/07 14:06:41;;;;;;;6.28;3.80;;;19.10;60.40;;;;;;5032638;28;20200;-45
2023/05/07 14:09:13;;;;;;;4.90;3.90;;;19.10;60.40;;;;;;5033187;28;20200;-45
2023/05/07 14:11:43;;;;;;;6.78;4.10;;;19.10;60.50;;;;;;5033138;28;20319;-45
2023/05/07 14:14:14;;;;;;;4.80;4.03;;;19.10;60.50;;;;;;5032269;28;20200;-45